Izumo Princess — SXMB — position and weather

sailwx.info

Track history (hours):
 
Tides and Currents Weather Stations Pressure Air Temp Water Temp Dewpoint Dewpoint Depression Visibility Wind Speed Wind Dir Waves Ship Positions

Izumo Princess

Last reported at 2016-Jun-26 04:24 UTC. Time now 2016-Jun-26 15:38 UTC.
Position N 43°18' E 033°54'.

Length 229 m; draft 8 m.

Type: Tanker. MMSI: 240611000.

Date/timePositionNaut miles runAvg speedWind from/ knotsBaromVisibWave heightAir tempDewpointWater temp
2016-Jun-26 04:24N 43°18' E 033°54'2111.3
2016-Jun-26 02:33N 43°10' E 033°27'24110.4
2016-Jun-25 03:21N 40°56' E 028°58'7 8.7
2016-Jun-25 02:32N 40°50' E 028°54'2 1.9
2016-Jun-25 01:33N 40°48' E 028°55'1 1.2
2016-Jun-25 00:33N 40°48' E 028°57'156 9.2
2016-Jun-24 07:33N 39°53' E 025°46'9 2.7
2016-Jun-24 04:17N 39°46' E 025°39'2 0.1
2016-Jun-23 17:25N 39°47' E 025°37'102 6.7
2016-Jun-23 02:09N 38°13' E 024°48'710.1
2016-Jun-23 01:26N 38°06' E 024°44'9 9.7
2016-Jun-23 00:33N 37°58' E 024°39'9 8.8
2016-Jun-22 23:33N 37°52' E 024°33'10 9.7
2016-Jun-22 22:33N 37°47' E 024°22'1110.6
2016-Jun-22 21:33N 37°39' E 024°13'9 9.1
2016-Jun-22 20:33N 37°35' E 024°03'1111.0
2016-Jun-22 19:33N 37°38' E 023°49'1010.4
2016-Jun-22 18:33N 37°45' E 023°39'10 9.7
2016-Jun-22 17:33N 37°50' E 023°29'8 8.4
2016-Jun-22 16:33N 37°56' E 023°22'3 2.5
2016-Jun-22 15:33N 37°58' E 023°23'0 0.0
2016-Jun-22 14:30N 37°58' E 023°23'0 0.0
2016-Jun-22 13:33N 37°58' E 023°23'0 0.0
2016-Jun-22 12:33N 37°58' E 023°23'0 0.0
2016-Jun-22 11:33N 37°58' E 023°23'0 0.0
2016-Jun-22 10:33N 37°58' E 023°23'0 0.0
2016-Jun-22 09:33N 37°58' E 023°23'0 0.0
2016-Jun-22 08:33N 37°58' E 023°23'0 0.0
2016-Jun-22 07:33N 37°58' E 023°23'0 0.0
2016-Jun-22 06:33N 37°58' E 023°23'0 0.0
2016-Jun-22 05:33N 37°58' E 023°23'0 0.0
2016-Jun-22 04:33N 37°58' E 023°23'0 0.0
2016-Jun-22 03:33N 37°58' E 023°23'0 0.0
2016-Jun-22 02:33N 37°58' E 023°23'0 0.0
2016-Jun-22 01:33N 37°58' E 023°23'0 0.0
2016-Jun-22 00:33N 37°58' E 023°23'0 0.0
2016-Jun-21 23:30N 37°58' E 023°23'0 0.0
2016-Jun-21 22:33N 37°58' E 023°23'0 0.0
2016-Jun-21 21:33N 37°58' E 023°23'0 0.0
2016-Jun-21 20:33N 37°58' E 023°23'0 0.0
2016-Jun-21 19:33N 37°58' E 023°23'0 0.0
2016-Jun-21 18:33N 37°58' E 023°23'0 0.0
2016-Jun-21 17:33N 37°58' E 023°23'0 0.0
2016-Jun-21 16:33N 37°58' E 023°23'0 0.0
2016-Jun-21 15:33N 37°58' E 023°23'0 0.0
2016-Jun-21 14:33N 37°58' E 023°23'0 0.0
2016-Jun-21 13:33N 37°58' E 023°23'0 0.0
2016-Jun-21 12:33N 37°58' E 023°23'0 0.0
2016-Jun-21 11:33N 37°58' E 023°23'0 0.0
2016-Jun-21 10:33N 37°58' E 023°23'0 0.0
2016-Jun-21 09:33N 37°58' E 023°23'0 0.0
2016-Jun-21 08:33N 37°58' E 023°23'0 0.0
2016-Jun-21 07:34N 37°58' E 023°23'2 1.2
2016-Jun-21 05:33N 37°56' E 023°22'0 0.4
2016-Jun-21 04:33N 37°56' E 023°22'3 2.5
2016-Jun-21 03:34N 37°54' E 023°22'9 9.0
2016-Jun-21 02:33N 37°49' E 023°32'9 8.6
2016-Jun-21 01:34N 37°47' E 023°42'1110.8
2016-Jun-21 00:34N 37°38' E 023°50'1211.4
2016-Jun-20 23:29N 37°37' E 024°06'7111.5
2016-Jun-20 17:17N 38°35' E 024°57'2111.7
2016-Jun-20 15:27N 38°54' E 025°10'2311.5
2016-Jun-20 13:28N 39°14' E 025°23'3411.7
2016-Jun-20 10:34N 39°45' E 025°42'1211.8
2016-Jun-20 09:33N 39°55' E 025°51'1411.2
2016-Jun-20 08:16N 40°01' E 026°07'3910.5
2016-Jun-20 04:32N 40°27' E 026°47'6 6.2
2016-Jun-20 03:33N 40°29' E 026°54'5 4.6
2016-Jun-20 02:34N 40°27' E 026°59'1 0.7
2016-Jun-20 00:32N 40°28' E 027°01'  
2016-Jun-17 14:23N 44°03' E 036°26'4911.6
2016-Jun-17 10:09N 44°28' E 037°26'711.9
2016-Jun-17 09:33N 44°32' E 037°34'7 7.5
2016-Jun-17 08:33N 44°37' E 037°41'1 0.5
2016-Jun-17 07:33N 44°37' E 037°42'0 0.2
2016-Jun-17 06:33N 44°37' E 037°42'0 0.2
2016-Jun-17 05:33N 44°37' E 037°42'0 0.3
2016-Jun-17 04:33N 44°36' E 037°43'0 0.3
2016-Jun-17 03:33N 44°36' E 037°43'0 0.4
2016-Jun-17 02:33N 44°36' E 037°44'4 3.8
2016-Jun-17 01:33N 44°37' E 037°38'1 0.1
2016-Jun-16 10:22N 44°38' E 037°38'0 0.1
2016-Jun-16 09:10N 44°38' E 037°38'0 0.5
2016-Jun-16 08:33N 44°38' E 037°38'3 2.9
2016-Jun-16 07:34N 44°35' E 037°38'1 1.2
2016-Jun-16 06:33N 44°34' E 037°39'5 5.1
2016-Jun-16 05:33N 44°35' E 037°46'6 5.9
2016-Jun-16 04:31N 44°36' E 037°54'  
Track history (hours):
 
Tides and Currents Weather Stations Pressure Air Temp Water Temp Dewpoint Dewpoint Depression Visibility Wind Speed Wind Dir Waves Ship Positions

Izumo Princess

Last reported at 2016-Jun-26 04:24 UTC. Time now 2016-Jun-26 15:38 UTC.
Position N 43°18' E 033°54'.

Length 229 m; draft 8 m.

Type: Tanker. MMSI: 240611000.

Date/timePositionNaut miles runAvg speedWind from/ knotsBaromVisibWave heightAir tempDewpointWater temp
2016-Jun-26 04:24N 43°18' E 033°54'2111.3
2016-Jun-26 02:33N 43°10' E 033°27'24110.4
2016-Jun-25 03:21N 40°56' E 028°58'7 8.7
2016-Jun-25 02:32N 40°50' E 028°54'2 1.9
2016-Jun-25 01:33N 40°48' E 028°55'1 1.2
2016-Jun-25 00:33N 40°48' E 028°57'156 9.2
2016-Jun-24 07:33N 39°53' E 025°46'9 2.7
2016-Jun-24 04:17N 39°46' E 025°39'2 0.1
2016-Jun-23 17:25N 39°47' E 025°37'102 6.7
2016-Jun-23 02:09N 38°13' E 024°48'710.1
2016-Jun-23 01:26N 38°06' E 024°44'9 9.7
2016-Jun-23 00:33N 37°58' E 024°39'9 8.8
2016-Jun-22 23:33N 37°52' E 024°33'10 9.7
2016-Jun-22 22:33N 37°47' E 024°22'1110.6
2016-Jun-22 21:33N 37°39' E 024°13'9 9.1
2016-Jun-22 20:33N 37°35' E 024°03'1111.0
2016-Jun-22 19:33N 37°38' E 023°49'1010.4
2016-Jun-22 18:33N 37°45' E 023°39'10 9.7
2016-Jun-22 17:33N 37°50' E 023°29'8 8.4
2016-Jun-22 16:33N 37°56' E 023°22'3 2.5
2016-Jun-22 15:33N 37°58' E 023°23'0 0.0
2016-Jun-22 14:30N 37°58' E 023°23'0 0.0
2016-Jun-22 13:33N 37°58' E 023°23'0 0.0
2016-Jun-22 12:33N 37°58' E 023°23'0 0.0
2016-Jun-22 11:33N 37°58' E 023°23'0 0.0
2016-Jun-22 10:33N 37°58' E 023°23'0 0.0
2016-Jun-22 09:33N 37°58' E 023°23'0 0.0
2016-Jun-22 08:33N 37°58' E 023°23'0 0.0
2016-Jun-22 07:33N 37°58' E 023°23'0 0.0
2016-Jun-22 06:33N 37°58' E 023°23'0 0.0
2016-Jun-22 05:33N 37°58' E 023°23'0 0.0
2016-Jun-22 04:33N 37°58' E 023°23'0 0.0
2016-Jun-22 03:33N 37°58' E 023°23'0 0.0
2016-Jun-22 02:33N 37°58' E 023°23'0 0.0
2016-Jun-22 01:33N 37°58' E 023°23'0 0.0
2016-Jun-22 00:33N 37°58' E 023°23'0 0.0
2016-Jun-21 23:30N 37°58' E 023°23'0 0.0
2016-Jun-21 22:33N 37°58' E 023°23'0 0.0
2016-Jun-21 21:33N 37°58' E 023°23'0 0.0
2016-Jun-21 20:33N 37°58' E 023°23'0 0.0
2016-Jun-21 19:33N 37°58' E 023°23'0 0.0
2016-Jun-21 18:33N 37°58' E 023°23'0 0.0
2016-Jun-21 17:33N 37°58' E 023°23'0 0.0
2016-Jun-21 16:33N 37°58' E 023°23'0 0.0
2016-Jun-21 15:33N 37°58' E 023°23'0 0.0
2016-Jun-21 14:33N 37°58' E 023°23'0 0.0
2016-Jun-21 13:33N 37°58' E 023°23'0 0.0
2016-Jun-21 12:33N 37°58' E 023°23'0 0.0
2016-Jun-21 11:33N 37°58' E 023°23'0 0.0
2016-Jun-21 10:33N 37°58' E 023°23'0 0.0
2016-Jun-21 09:33N 37°58' E 023°23'0 0.0
2016-Jun-21 08:33N 37°58' E 023°23'0 0.0
2016-Jun-21 07:34N 37°58' E 023°23'2 1.2
2016-Jun-21 05:33N 37°56' E 023°22'0 0.4
2016-Jun-21 04:33N 37°56' E 023°22'3 2.5
2016-Jun-21 03:34N 37°54' E 023°22'9 9.0
2016-Jun-21 02:33N 37°49' E 023°32'9 8.6
2016-Jun-21 01:34N 37°47' E 023°42'1110.8
2016-Jun-21 00:34N 37°38' E 023°50'1211.4
2016-Jun-20 23:29N 37°37' E 024°06'7111.5
2016-Jun-20 17:17N 38°35' E 024°57'2111.7
2016-Jun-20 15:27N 38°54' E 025°10'2311.5
2016-Jun-20 13:28N 39°14' E 025°23'3411.7
2016-Jun-20 10:34N 39°45' E 025°42'1211.8
2016-Jun-20 09:33N 39°55' E 025°51'1411.2
2016-Jun-20 08:16N 40°01' E 026°07'3910.5
2016-Jun-20 04:32N 40°27' E 026°47'6 6.2
2016-Jun-20 03:33N 40°29' E 026°54'5 4.6
2016-Jun-20 02:34N 40°27' E 026°59'1 0.7
2016-Jun-20 00:32N 40°28' E 027°01'  
2016-Jun-17 14:23N 44°03' E 036°26'4911.6
2016-Jun-17 10:09N 44°28' E 037°26'711.9
2016-Jun-17 09:33N 44°32' E 037°34'7 7.5
2016-Jun-17 08:33N 44°37' E 037°41'1 0.5
2016-Jun-17 07:33N 44°37' E 037°42'0 0.2
2016-Jun-17 06:33N 44°37' E 037°42'0 0.2
2016-Jun-17 05:33N 44°37' E 037°42'0 0.3
2016-Jun-17 04:33N 44°36' E 037°43'0 0.3
2016-Jun-17 03:33N 44°36' E 037°43'0 0.4
2016-Jun-17 02:33N 44°36' E 037°44'4 3.8
2016-Jun-17 01:33N 44°37' E 037°38'1 0.1
2016-Jun-16 10:22N 44°38' E 037°38'0 0.1
2016-Jun-16 09:10N 44°38' E 037°38'0 0.5
2016-Jun-16 08:33N 44°38' E 037°38'3 2.9
2016-Jun-16 07:34N 44°35' E 037°38'1 1.2
2016-Jun-16 06:33N 44°34' E 037°39'5 5.1
2016-Jun-16 05:33N 44°35' E 037°46'6 5.9
2016-Jun-16 04:31N 44°36' E 037°54'  

Dump ship's entire track history